createdAt,value
2017-10-08T00:00:30.979Z,0.00
2017-10-08T00:01:30.950Z,0.00
2017-10-08T00:02:30.912Z,0.00
2017-10-08T00:03:30.861Z,0.00
2017-10-08T00:04:30.954Z,0.00
2017-10-08T00:05:30.949Z,0.00
2017-10-08T00:06:30.956Z,0.00
2017-10-08T00:07:30.920Z,0.00
2017-10-08T00:08:30.925Z,0.00
2017-10-08T00:09:30.912Z,0.00
2017-10-08T00:10:30.924Z,0.00
2017-10-08T00:11:30.868Z,0.00
2017-10-08T00:12:30.909Z,0.00
2017-10-08T00:13:30.905Z,0.00
2017-10-08T00:14:30.862Z,0.00
2017-10-08T00:15:30.858Z,0.00
2017-10-08T00:16:30.837Z,0.00
2017-10-08T00:17:30.910Z,0.00
2017-10-08T00:18:30.880Z,0.00
2017-10-08T00:19:30.846Z,0.00
2017-10-08T00:20:30.971Z,0.00
2017-10-08T00:21:30.886Z,0.00
2017-10-08T00:22:30.862Z,0.00
2017-10-08T00:23:30.895Z,0.00
2017-10-08T00:24:30.897Z,0.00
2017-10-08T00:25:30.929Z,0.00
2017-10-08T00:26:30.867Z,0.00
2017-10-08T00:27:30.894Z,0.00
2017-10-08T00:28:30.888Z,0.00
2017-10-08T00:29:30.972Z,0.00
2017-10-08T00:30:30.893Z,0.00
2017-10-08T00:31:30.906Z,0.00
2017-10-08T00:32:30.954Z,0.00
2017-10-08T00:33:30.958Z,0.00
2017-10-08T00:34:30.883Z,0.00
2017-10-08T00:35:30.977Z,0.00
2017-10-08T00:36:30.862Z,0.00
2017-10-08T00:37:30.849Z,0.00
2017-10-08T00:38:30.870Z,0.00
2017-10-08T00:39:30.960Z,0.00
2017-10-08T00:40:30.976Z,0.00
2017-10-08T00:41:30.918Z,0.00
2017-10-08T00:42:30.947Z,0.00
2017-10-08T00:43:30.938Z,0.00
2017-10-08T00:44:30.892Z,0.00
2017-10-08T00:45:30.956Z,0.00
2017-10-08T00:46:30.967Z,0.00
2017-10-08T00:47:30.909Z,0.00
2017-10-08T00:48:30.927Z,0.00
2017-10-08T00:49:30.929Z,0.00
2017-10-08T00:50:30.881Z,0.00
2017-10-08T00:51:30.905Z,0.00
2017-10-08T00:52:30.870Z,0.00
2017-10-08T00:53:30.982Z,0.00
2017-10-08T00:54:31.756Z,0.00
2017-10-08T00:55:30.894Z,0.00
2017-10-08T00:56:30.962Z,0.00
2017-10-08T00:57:30.870Z,0.00
2017-10-08T00:58:30.896Z,0.00
2017-10-08T00:59:30.901Z,0.00
2017-10-08T01:00:30.900Z,0.00
2017-10-08T01:01:30.945Z,0.00
2017-10-08T01:02:30.904Z,0.00
2017-10-08T01:03:30.872Z,0.00
2017-10-08T01:04:30.864Z,0.00
2017-10-08T01:05:30.938Z,0.00
2017-10-08T01:06:30.926Z,0.00
2017-10-08T01:07:30.876Z,0.00
2017-10-08T01:08:30.877Z,0.00
2017-10-08T01:09:30.928Z,0.00
2017-10-08T01:10:30.852Z,0.00
2017-10-08T01:11:30.901Z,0.00
2017-10-08T01:12:30.933Z,0.00
2017-10-08T01:13:30.853Z,0.00
2017-10-08T01:14:31.115Z,0.00
2017-10-08T01:15:30.896Z,0.00
2017-10-08T01:16:30.821Z,0.00
2017-10-08T01:17:30.908Z,0.00
2017-10-08T01:18:30.920Z,0.00
2017-10-08T01:19:30.887Z,0.00
2017-10-08T01:20:30.917Z,0.00
2017-10-08T01:21:30.845Z,0.00
2017-10-08T01:22:30.949Z,0.00
2017-10-08T01:23:30.843Z,0.00
2017-10-08T01:24:30.899Z,0.00
2017-10-08T01:25:30.866Z,0.00
2017-10-08T01:26:30.826Z,0.00
2017-10-08T01:27:30.890Z,0.00
2017-10-08T01:28:30.910Z,0.00
2017-10-08T01:29:30.800Z,0.00
2017-10-08T01:30:30.888Z,0.00
2017-10-08T01:31:30.974Z,0.00
2017-10-08T01:32:30.836Z,0.00
2017-10-08T01:33:30.940Z,0.00
2017-10-08T01:34:30.828Z,0.00
2017-10-08T01:35:31.572Z,0.00
2017-10-08T01:36:30.835Z,0.00
2017-10-08T01:37:30.825Z,0.00
2017-10-08T01:38:30.854Z,0.00
2017-10-08T01:39:30.866Z,0.00
2017-10-08T01:40:30.967Z,0.00
2017-10-08T01:41:30.824Z,0.00
2017-10-08T01:42:30.851Z,0.00
2017-10-08T01:43:30.898Z,0.00
2017-10-08T01:44:30.907Z,0.00
2017-10-08T01:45:30.922Z,0.00
2017-10-08T01:46:30.858Z,0.00
2017-10-08T01:47:30.934Z,0.00
2017-10-08T01:48:30.898Z,0.00
2017-10-08T01:49:30.881Z,0.00
2017-10-08T01:50:30.949Z,0.00
2017-10-08T01:51:30.820Z,0.00
2017-10-08T01:52:30.845Z,0.00
2017-10-08T01:53:30.792Z,0.00
2017-10-08T01:54:30.881Z,0.00
2017-10-08T01:55:31.028Z,0.00
2017-10-08T01:56:30.872Z,0.00
2017-10-08T01:57:30.814Z,0.00
2017-10-08T01:58:30.906Z,0.00
2017-10-08T01:59:30.819Z,0.00
2017-10-08T02:00:30.907Z,0.00
2017-10-08T02:01:30.814Z,0.00
2017-10-08T02:02:30.825Z,0.00
2017-10-08T02:03:30.851Z,0.00
2017-10-08T02:04:30.824Z,0.00
2017-10-08T02:05:30.936Z,0.00
2017-10-08T02:06:30.852Z,0.00
2017-10-08T02:07:30.814Z,0.00
2017-10-08T02:08:30.832Z,0.00
2017-10-08T02:09:30.996Z,0.00
2017-10-08T02:10:30.868Z,0.00
2017-10-08T02:11:30.950Z,0.00
2017-10-08T02:12:30.811Z,0.00
2017-10-08T02:13:30.827Z,0.00
2017-10-08T02:14:30.950Z,0.00
2017-10-08T02:15:30.908Z,0.00
2017-10-08T02:16:30.855Z,0.00
2017-10-08T02:17:30.831Z,0.00
2017-10-08T02:18:30.823Z,0.00
2017-10-08T02:19:30.915Z,0.00
2017-10-08T02:20:31.003Z,0.00
2017-10-08T02:21:30.854Z,0.00
2017-10-08T02:22:31.385Z,0.00
2017-10-08T02:23:31.387Z,0.00
2017-10-08T02:24:30.865Z,0.00
2017-10-08T02:25:30.835Z,0.00
2017-10-08T02:26:30.900Z,0.00
2017-10-08T02:27:30.854Z,0.00
2017-10-08T02:28:30.873Z,0.00
2017-10-08T02:29:30.825Z,0.00
2017-10-08T02:30:30.887Z,0.00
2017-10-08T02:31:30.829Z,0.00
2017-10-08T02:32:30.834Z,0.00
2017-10-08T02:33:30.865Z,0.00
2017-10-08T02:34:30.861Z,0.00
2017-10-08T02:35:30.916Z,0.00
2017-10-08T02:36:31.135Z,0.00
2017-10-08T02:37:30.764Z,0.00
2017-10-08T02:38:30.817Z,0.00
2017-10-08T02:39:30.884Z,0.00
2017-10-08T02:40:30.882Z,0.00
2017-10-08T02:41:30.918Z,0.00
2017-10-08T02:42:30.834Z,0.00
2017-10-08T02:43:30.853Z,0.00
2017-10-08T02:44:30.814Z,0.00
2017-10-08T02:45:30.849Z,0.00
2017-10-08T02:46:30.941Z,0.00
2017-10-08T02:47:30.900Z,0.00
2017-10-08T02:48:30.814Z,0.00
2017-10-08T02:49:30.780Z,0.00
2017-10-08T02:50:30.851Z,0.00
2017-10-08T02:51:30.854Z,0.00
2017-10-08T02:52:30.767Z,0.00
2017-10-08T02:53:30.887Z,0.00
2017-10-08T02:54:30.828Z,0.00
2017-10-08T02:55:30.763Z,0.00
2017-10-08T02:56:30.949Z,0.00
2017-10-08T02:57:30.847Z,0.00
2017-10-08T02:58:30.771Z,0.00
2017-10-08T02:59:30.745Z,0.00
2017-10-08T03:00:30.744Z,0.00
2017-10-08T03:01:30.824Z,0.00
2017-10-08T03:02:30.801Z,0.00
2017-10-08T03:03:30.909Z,0.00
2017-10-08T03:04:30.762Z,0.00
2017-10-08T03:05:30.858Z,0.00
2017-10-08T03:06:30.853Z,0.00
2017-10-08T03:07:30.824Z,0.00
2017-10-08T03:08:31.460Z,0.00
2017-10-08T03:09:30.814Z,0.00
2017-10-08T03:10:30.883Z,0.00
2017-10-08T03:11:30.857Z,0.00
2017-10-08T03:12:30.872Z,0.00
2017-10-08T03:13:30.906Z,0.00
2017-10-08T03:14:30.847Z,0.00
2017-10-08T03:15:30.770Z,0.00
2017-10-08T03:16:30.817Z,0.00
2017-10-08T03:17:30.816Z,0.00
2017-10-08T03:18:30.780Z,0.00
2017-10-08T03:19:30.778Z,0.00
2017-10-08T03:20:30.877Z,0.00
2017-10-08T03:21:30.787Z,0.00
2017-10-08T03:22:30.877Z,0.00
2017-10-08T03:23:31.556Z,0.00
2017-10-08T03:24:30.787Z,0.00
2017-10-08T03:25:30.809Z,0.00
2017-10-08T03:26:30.735Z,0.00
2017-10-08T03:27:30.805Z,0.00
2017-10-08T03:28:30.806Z,0.00
2017-10-08T03:29:30.771Z,0.00
2017-10-08T03:30:30.775Z,0.00
2017-10-08T03:31:30.811Z,0.00
2017-10-08T03:32:30.787Z,0.00
2017-10-08T03:33:30.786Z,0.00
2017-10-08T03:34:30.806Z,0.00
2017-10-08T03:35:30.794Z,0.00
2017-10-08T03:36:30.841Z,0.00
2017-10-08T03:37:30.845Z,0.00
2017-10-08T03:38:30.836Z,0.00
2017-10-08T03:39:30.828Z,0.00
2017-10-08T03:40:30.816Z,0.00
2017-10-08T03:41:30.842Z,0.00
2017-10-08T03:42:30.844Z,0.00
2017-10-08T03:43:30.787Z,0.00
2017-10-08T03:44:30.772Z,0.00
2017-10-08T03:45:30.827Z,0.00
2017-10-08T03:46:30.912Z,0.00
2017-10-08T03:47:30.739Z,0.00
2017-10-08T03:48:30.826Z,0.00
2017-10-08T03:49:30.727Z,0.00
2017-10-08T03:50:30.792Z,0.00
2017-10-08T03:51:30.735Z,0.00
2017-10-08T03:52:30.800Z,0.00
2017-10-08T03:53:30.881Z,0.00
2017-10-08T03:54:30.753Z,0.00
2017-10-08T03:55:30.878Z,0.00
2017-10-08T03:56:30.779Z,0.00
2017-10-08T03:57:30.744Z,0.00
2017-10-08T03:58:30.772Z,0.00
2017-10-08T03:59:30.776Z,0.00
2017-10-08T04:00:30.905Z,0.00
2017-10-08T04:01:30.733Z,0.00
2017-10-08T04:02:30.729Z,0.00
2017-10-08T04:03:30.867Z,0.00
2017-10-08T04:04:30.901Z,0.00
2017-10-08T04:05:30.857Z,0.00
2017-10-08T04:06:30.734Z,0.00
2017-10-08T04:07:30.787Z,0.00
2017-10-08T04:08:31.564Z,0.00
2017-10-08T04:09:30.850Z,0.00
2017-10-08T04:10:30.760Z,0.00
2017-10-08T04:11:30.775Z,0.00
2017-10-08T04:12:30.754Z,0.00
2017-10-08T04:13:30.779Z,0.00
2017-10-08T04:14:30.728Z,0.00
2017-10-08T04:15:30.701Z,0.00
2017-10-08T04:16:30.789Z,0.00
2017-10-08T04:17:30.748Z,0.00
2017-10-08T04:18:30.862Z,0.00
2017-10-08T04:19:30.723Z,0.00
2017-10-08T04:20:30.815Z,0.00
2017-10-08T04:21:30.833Z,0.00
2017-10-08T04:22:30.761Z,0.00
2017-10-08T04:23:30.730Z,0.00
2017-10-08T04:24:30.778Z,0.00
2017-10-08T04:25:30.782Z,0.00
2017-10-08T04:26:30.771Z,0.00
2017-10-08T04:27:30.752Z,0.00
2017-10-08T04:28:30.739Z,0.00
2017-10-08T04:29:31.258Z,0.00
2017-10-08T04:30:30.751Z,0.00
2017-10-08T04:31:30.781Z,0.00
2017-10-08T04:32:30.703Z,0.00
2017-10-08T04:33:30.762Z,0.00
2017-10-08T04:34:30.788Z,0.00
2017-10-08T04:35:30.780Z,0.00
2017-10-08T04:36:30.767Z,0.00
2017-10-08T04:37:30.767Z,0.00
2017-10-08T04:38:30.994Z,0.00
2017-10-08T04:39:30.767Z,0.00
2017-10-08T04:40:30.727Z,0.00
2017-10-08T04:41:30.750Z,0.00
2017-10-08T04:42:30.826Z,0.00
2017-10-08T04:43:30.751Z,0.00
2017-10-08T04:44:30.768Z,0.00
2017-10-08T04:45:30.857Z,0.00
2017-10-08T04:46:30.805Z,0.00
2017-10-08T04:47:30.818Z,0.00
2017-10-08T04:48:30.746Z,0.00
2017-10-08T04:49:31.679Z,0.00
2017-10-08T04:50:31.611Z,0.00
2017-10-08T04:51:30.765Z,0.00
2017-10-08T04:52:30.727Z,0.00
2017-10-08T04:53:30.844Z,0.00
2017-10-08T04:54:30.880Z,0.00
2017-10-08T04:55:30.693Z,0.00
2017-10-08T04:56:30.717Z,0.00
2017-10-08T04:57:30.754Z,0.00
2017-10-08T04:58:30.770Z,0.00
2017-10-08T04:59:30.739Z,0.00
2017-10-08T05:00:30.758Z,0.00
2017-10-08T05:01:30.710Z,0.00
2017-10-08T05:02:30.742Z,0.00
2017-10-08T05:03:30.894Z,0.00
2017-10-08T05:04:31.054Z,0.00
2017-10-08T05:05:30.912Z,0.00
2017-10-08T05:06:30.793Z,0.00
2017-10-08T05:07:30.801Z,4.00
2017-10-08T05:08:30.734Z,4.00
2017-10-08T05:09:30.735Z,4.00
2017-10-08T05:10:30.804Z,4.00
2017-10-08T05:11:30.799Z,4.00
2017-10-08T05:12:30.738Z,4.00
2017-10-08T05:13:30.779Z,4.00
2017-10-08T05:14:30.777Z,8.00
2017-10-08T05:15:30.797Z,12.00
2017-10-08T05:16:30.770Z,12.00
2017-10-08T05:17:31.152Z,16.00
2017-10-08T05:18:30.876Z,20.00
2017-10-08T05:19:30.872Z,28.00
2017-10-08T05:20:30.868Z,28.00
2017-10-08T05:21:30.803Z,36.00
2017-10-08T05:22:30.759Z,44.00
2017-10-08T05:23:30.799Z,52.00
2017-10-08T05:24:30.789Z,60.00
2017-10-08T05:25:30.745Z,72.00
2017-10-08T05:26:30.801Z,84.00
2017-10-08T05:27:30.708Z,96.00
2017-10-08T05:28:30.715Z,112.00
2017-10-08T05:29:30.831Z,124.00
2017-10-08T05:30:31.703Z,144.00
2017-10-08T05:31:30.793Z,168.00
2017-10-08T05:32:30.788Z,184.00
2017-10-08T05:33:30.725Z,208.00
2017-10-08T05:34:30.742Z,236.00
2017-10-08T05:35:30.786Z,256.00
2017-10-08T05:36:30.765Z,288.00
2017-10-08T05:37:30.748Z,316.00
2017-10-08T05:38:30.760Z,352.00
2017-10-08T05:39:30.860Z,396.00
2017-10-08T05:40:30.767Z,428.00
2017-10-08T05:41:30.839Z,456.00
2017-10-08T05:42:31.194Z,492.00
2017-10-08T05:43:30.792Z,524.00
2017-10-08T05:44:30.826Z,552.00
2017-10-08T05:45:30.671Z,584.00
2017-10-08T05:46:30.786Z,616.00
2017-10-08T05:47:30.715Z,652.00
2017-10-08T05:48:30.700Z,688.00
2017-10-08T05:49:30.803Z,724.00
2017-10-08T05:50:30.736Z,764.00
2017-10-08T05:51:30.838Z,804.00
2017-10-08T05:52:30.732Z,848.00
2017-10-08T05:53:30.857Z,904.00
2017-10-08T05:54:30.755Z,932.00
2017-10-08T05:55:30.723Z,972.00
2017-10-08T05:56:30.814Z,1012.00
2017-10-08T05:57:30.755Z,1032.00
2017-10-08T05:58:30.727Z,1064.00
2017-10-08T05:59:31.220Z,1108.00
2017-10-08T06:00:30.713Z,1180.00
2017-10-08T06:01:30.762Z,1196.00
2017-10-08T06:02:30.721Z,1216.00
2017-10-08T06:03:30.689Z,1212.00
2017-10-08T06:04:30.716Z,1224.00
2017-10-08T06:05:30.841Z,1240.00
2017-10-08T06:06:30.778Z,1292.00
2017-10-08T06:07:30.679Z,1348.00
2017-10-08T06:08:30.697Z,1448.00
2017-10-08T06:09:30.770Z,1516.00
2017-10-08T06:10:30.770Z,1500.00
2017-10-08T06:11:30.741Z,1480.00
2017-10-08T06:12:30.687Z,1560.00
2017-10-08T06:13:30.685Z,1704.00
2017-10-08T06:14:30.795Z,1788.00
2017-10-08T06:15:30.710Z,1872.00
2017-10-08T06:16:30.670Z,1908.00
2017-10-08T06:17:30.686Z,1888.00
2017-10-08T06:18:30.695Z,1852.00
2017-10-08T06:19:30.733Z,1892.00
2017-10-08T06:20:30.762Z,2072.00
2017-10-08T06:21:30.673Z,2360.00
2017-10-08T06:22:30.774Z,2488.00
2017-10-08T06:23:30.700Z,2272.00
2017-10-08T06:24:30.714Z,2140.00
2017-10-08T06:25:30.713Z,2128.00
2017-10-08T06:26:30.684Z,2180.00
2017-10-08T06:27:31.055Z,2260.00
2017-10-08T06:28:30.777Z,2428.00
2017-10-08T06:29:30.844Z,2340.00
2017-10-08T06:30:30.681Z,2132.00
2017-10-08T06:31:30.702Z,2088.00
2017-10-08T06:32:30.776Z,2092.00
2017-10-08T06:33:30.665Z,2060.00
2017-10-08T06:34:30.696Z,2020.00
2017-10-08T06:35:30.851Z,2032.00
2017-10-08T06:36:30.681Z,2056.00
2017-10-08T06:37:30.724Z,2092.00
2017-10-08T06:38:30.716Z,2140.00
2017-10-08T06:39:30.721Z,2196.00
2017-10-08T06:40:30.681Z,2252.00
2017-10-08T06:41:30.799Z,2308.00
2017-10-08T06:42:30.723Z,2356.00
2017-10-08T06:43:30.678Z,2408.00
2017-10-08T06:44:30.708Z,2472.00
2017-10-08T06:45:30.740Z,2544.00
2017-10-08T06:46:30.733Z,2648.00
2017-10-08T06:47:30.715Z,2684.00
2017-10-08T06:48:30.695Z,2700.00
2017-10-08T06:49:30.881Z,2712.00
2017-10-08T06:50:30.694Z,2788.00
2017-10-08T06:51:30.674Z,2772.00
2017-10-08T06:52:30.875Z,2784.00
2017-10-08T06:53:30.740Z,2852.00
2017-10-08T06:54:30.758Z,2988.00
2017-10-08T06:55:30.671Z,3120.00
2017-10-08T06:56:30.772Z,3076.00
2017-10-08T06:57:30.820Z,3064.00
2017-10-08T06:58:30.883Z,3052.00
2017-10-08T06:59:30.739Z,3296.00
2017-10-08T07:00:30.686Z,3256.00
2017-10-08T07:01:30.703Z,3168.00
2017-10-08T07:02:30.655Z,3108.00
2017-10-08T07:03:30.754Z,3236.00
2017-10-08T07:04:30.724Z,3268.00
2017-10-08T07:05:30.679Z,3328.00
2017-10-08T07:06:30.715Z,3324.00
2017-10-08T07:07:30.703Z,3292.00
2017-10-08T07:08:30.915Z,3060.00
2017-10-08T07:09:30.684Z,2976.00
2017-10-08T07:10:30.763Z,3040.00
2017-10-08T07:11:30.645Z,3024.00
2017-10-08T07:12:30.736Z,2972.00
2017-10-08T07:13:30.746Z,3052.00
2017-10-08T07:14:30.703Z,3076.00
2017-10-08T07:15:30.699Z,3068.00
2017-10-08T07:16:30.644Z,3040.00
2017-10-08T07:17:30.709Z,3012.00
2017-10-08T07:18:30.853Z,3012.00
2017-10-08T07:19:30.815Z,3136.00
2017-10-08T07:20:30.879Z,3116.00
2017-10-08T07:21:31.340Z,3144.00
2017-10-08T07:22:30.675Z,3164.00
2017-10-08T07:23:30.753Z,3164.00
2017-10-08T07:24:30.670Z,3168.00
2017-10-08T07:25:30.855Z,3164.00
2017-10-08T07:26:30.756Z,3184.00
2017-10-08T07:27:30.783Z,3208.00
2017-10-08T07:28:30.790Z,3236.00
2017-10-08T07:29:31.692Z,3252.00
2017-10-08T07:30:30.793Z,3272.00
2017-10-08T07:31:30.640Z,3292.00
2017-10-08T07:32:30.662Z,3316.00
2017-10-08T07:33:30.739Z,3328.00
2017-10-08T07:34:30.616Z,3336.00
2017-10-08T07:35:30.634Z,3352.00
2017-10-08T07:36:30.641Z,3392.00
2017-10-08T07:37:30.635Z,3476.00
2017-10-08T07:38:30.612Z,3552.00
2017-10-08T07:39:30.809Z,3648.00
2017-10-08T07:40:30.666Z,3668.00
2017-10-08T07:41:30.677Z,3616.00
2017-10-08T07:42:30.725Z,3688.00
2017-10-08T07:43:30.807Z,3680.00
2017-10-08T07:44:30.775Z,3696.00
2017-10-08T07:45:30.718Z,3524.00
2017-10-08T07:46:30.635Z,3536.00
2017-10-08T07:47:30.750Z,3604.00
2017-10-08T07:48:30.684Z,3592.00
2017-10-08T07:49:30.718Z,3608.00
2017-10-08T07:50:30.634Z,3672.00
2017-10-08T07:51:30.620Z,3824.00
2017-10-08T07:52:30.598Z,4000.00
2017-10-08T07:53:30.708Z,3884.00
2017-10-08T07:54:30.718Z,4344.00
2017-10-08T07:55:30.851Z,4460.00
2017-10-08T07:56:30.732Z,4036.00
2017-10-08T07:57:30.709Z,5484.00
2017-10-08T07:58:30.595Z,4784.00
2017-10-08T07:59:30.733Z,4944.00
2017-10-08T08:00:31.400Z,5504.00
2017-10-08T08:01:31.401Z,6312.00
2017-10-08T08:02:30.645Z,4112.00
2017-10-08T08:03:30.698Z,4300.00
2017-10-08T08:04:30.686Z,4440.00
2017-10-08T08:05:30.705Z,4500.00
2017-10-08T08:06:31.506Z,5100.00
2017-10-08T08:07:30.778Z,5792.00
2017-10-08T08:08:30.749Z,6152.00
2017-10-08T08:09:30.666Z,5396.00
2017-10-08T08:10:30.664Z,5168.00
2017-10-08T08:11:30.664Z,6052.00
2017-10-08T08:12:30.732Z,5436.00
2017-10-08T08:13:30.670Z,5768.00
2017-10-08T08:14:30.661Z,4904.00
2017-10-08T08:15:30.695Z,4852.00
2017-10-08T08:16:30.703Z,5320.00
2017-10-08T08:17:30.598Z,4764.00
2017-10-08T08:18:30.671Z,4212.00
2017-10-08T08:19:31.429Z,4292.00
2017-10-08T08:20:30.766Z,4264.00
2017-10-08T08:21:30.683Z,4744.00
2017-10-08T08:22:30.689Z,4640.00
2017-10-08T08:23:30.785Z,4996.00
2017-10-08T08:24:30.586Z,5300.00
2017-10-08T08:25:30.606Z,5444.00
2017-10-08T08:26:30.577Z,5516.00
2017-10-08T08:27:30.576Z,6208.00
2017-10-08T08:28:30.572Z,6060.00
2017-10-08T08:29:30.578Z,5792.00
2017-10-08T08:30:30.602Z,5020.00
2017-10-08T08:31:30.567Z,4532.00
2017-10-08T08:32:30.613Z,5196.00
2017-10-08T08:33:30.591Z,7024.00
2017-10-08T08:34:30.592Z,6584.00
2017-10-08T08:35:30.704Z,6932.00
2017-10-08T08:36:30.594Z,5316.00
2017-10-08T08:37:30.632Z,5412.00
2017-10-08T08:38:30.753Z,5188.00
2017-10-08T08:39:30.674Z,7408.00
2017-10-08T08:40:30.677Z,9292.00
2017-10-08T08:41:30.595Z,10452.00
2017-10-08T08:42:31.464Z,11336.00
2017-10-08T08:43:30.603Z,11284.00
2017-10-08T08:44:30.689Z,10908.00
2017-10-08T08:45:30.668Z,10508.00
2017-10-08T08:46:30.734Z,10652.00
2017-10-08T08:47:30.655Z,9416.00
2017-10-08T08:48:30.676Z,9356.00
2017-10-08T08:49:30.698Z,9104.00
2017-10-08T08:50:30.643Z,8156.00
2017-10-08T08:51:30.672Z,7428.00
2017-10-08T08:52:30.792Z,7336.00
2017-10-08T08:53:30.636Z,7608.00
2017-10-08T08:54:30.583Z,8656.00
2017-10-08T08:55:30.694Z,8556.00
2017-10-08T08:56:30.755Z,9132.00
2017-10-08T08:57:30.626Z,7076.00
2017-10-08T08:58:30.619Z,7560.00
2017-10-08T08:59:30.617Z,7412.00
2017-10-08T09:00:30.757Z,5272.00
2017-10-08T09:01:30.738Z,5544.00
2017-10-08T09:02:30.839Z,7796.00
2017-10-08T09:03:30.627Z,7024.00
2017-10-08T09:04:30.613Z,5524.00
2017-10-08T09:05:30.735Z,6044.00
2017-10-08T09:06:30.648Z,9436.00
2017-10-08T09:07:30.583Z,12928.00
2017-10-08T09:08:30.659Z,10684.00
2017-10-08T09:09:30.679Z,6104.00
2017-10-08T09:10:30.741Z,5896.00
2017-10-08T09:11:30.745Z,6336.00
2017-10-08T09:12:30.685Z,6816.00
2017-10-08T09:13:30.645Z,7496.00
2017-10-08T09:14:30.615Z,6252.00
2017-10-08T09:15:30.651Z,6148.00
2017-10-08T09:16:30.746Z,7356.00
2017-10-08T09:17:30.635Z,9100.00
2017-10-08T09:18:30.834Z,9936.00
2017-10-08T09:19:30.642Z,8332.00
2017-10-08T09:20:30.653Z,10788.00
2017-10-08T09:21:30.686Z,11964.00
2017-10-08T09:22:30.661Z,10376.00
2017-10-08T09:23:30.711Z,11408.00
2017-10-08T09:24:30.795Z,10412.00
2017-10-08T09:25:30.734Z,12268.00
2017-10-08T09:26:30.707Z,11056.00
2017-10-08T09:27:30.868Z,10588.00
2017-10-08T09:28:30.692Z,11924.00
2017-10-08T09:29:30.707Z,12360.00
2017-10-08T09:30:30.614Z,12692.00
2017-10-08T09:31:30.835Z,13704.00
2017-10-08T09:32:30.689Z,12744.00
2017-10-08T09:33:30.708Z,13228.00
2017-10-08T09:34:30.675Z,14732.00
2017-10-08T09:35:30.592Z,16404.00
2017-10-08T09:36:30.854Z,18752.00
2017-10-08T09:37:30.609Z,17952.00
2017-10-08T09:38:30.633Z,17856.00
2017-10-08T09:39:30.713Z,18368.00
2017-10-08T09:40:30.573Z,20192.00
2017-10-08T09:41:30.786Z,19680.00
2017-10-08T09:42:30.735Z,19680.00
2017-10-08T09:43:30.610Z,19296.00
2017-10-08T09:44:30.620Z,17348.00
2017-10-08T09:45:30.732Z,15576.00
2017-10-08T09:46:30.665Z,12832.00
2017-10-08T09:47:30.746Z,13604.00
2017-10-08T09:48:30.611Z,15360.00
2017-10-08T09:49:30.704Z,13740.00
2017-10-08T09:50:30.746Z,7768.00
2017-10-08T09:51:30.594Z,8556.00
2017-10-08T09:52:30.629Z,9192.00
2017-10-08T09:53:30.667Z,12188.00
2017-10-08T09:54:30.624Z,12932.00
2017-10-08T09:55:30.577Z,13544.00
2017-10-08T09:56:30.646Z,14944.00
2017-10-08T09:57:30.755Z,16344.00
2017-10-08T09:58:30.593Z,19104.00
2017-10-08T09:59:30.659Z,20416.00
2017-10-08T10:00:30.590Z,19008.00
2017-10-08T10:01:30.641Z,16888.00
2017-10-08T10:02:30.788Z,18816.00
2017-10-08T10:03:30.617Z,19616.00
2017-10-08T10:04:30.670Z,18432.00
2017-10-08T10:05:30.628Z,14520.00
2017-10-08T10:06:30.668Z,12756.00
2017-10-08T10:07:30.661Z,12392.00
2017-10-08T10:08:30.617Z,13020.00
2017-10-08T10:09:30.560Z,14132.00
2017-10-08T10:10:30.614Z,13820.00
2017-10-08T10:11:30.608Z,12160.00
2017-10-08T10:12:30.743Z,15368.00
2017-10-08T10:13:30.598Z,19328.00
2017-10-08T10:14:30.744Z,18080.00
2017-10-08T10:15:31.229Z,16048.00
2017-10-08T10:16:30.589Z,16392.00
2017-10-08T10:17:30.690Z,18400.00
2017-10-08T10:18:30.569Z,19264.00
2017-10-08T10:19:31.063Z,18784.00
2017-10-08T10:20:30.602Z,17792.00
2017-10-08T10:21:30.552Z,17952.00
2017-10-08T10:22:30.659Z,17356.00
2017-10-08T10:23:30.885Z,16852.00
2017-10-08T10:24:30.644Z,15432.00
2017-10-08T10:25:31.637Z,14716.00
2017-10-08T10:26:30.671Z,15664.00
2017-10-08T10:27:30.837Z,16692.00
2017-10-08T10:28:30.650Z,14752.00
2017-10-08T10:29:30.680Z,12296.00
2017-10-08T10:30:30.569Z,11872.00
2017-10-08T10:31:30.613Z,11880.00
2017-10-08T10:32:30.654Z,10768.00
2017-10-08T10:33:30.758Z,9380.00
2017-10-08T10:34:30.616Z,6680.00
2017-10-08T10:35:30.642Z,7704.00
2017-10-08T10:36:30.678Z,7668.00
2017-10-08T10:37:30.648Z,8032.00
2017-10-08T10:38:30.690Z,8492.00
2017-10-08T10:39:30.719Z,7052.00
2017-10-08T10:40:30.628Z,6216.00
2017-10-08T10:41:30.594Z,6524.00
2017-10-08T10:42:30.715Z,6364.00
2017-10-08T10:43:30.687Z,6508.00
2017-10-08T10:44:30.653Z,8700.00
2017-10-08T10:45:30.591Z,12308.00
2017-10-08T10:46:30.661Z,13532.00
2017-10-08T10:47:30.637Z,14444.00
2017-10-08T10:48:30.690Z,14976.00
2017-10-08T10:49:30.631Z,14068.00
2017-10-08T10:50:30.579Z,13304.00
2017-10-08T10:51:30.661Z,12672.00
2017-10-08T10:52:30.620Z,13040.00
2017-10-08T10:53:30.594Z,12732.00
2017-10-08T10:54:30.622Z,9448.00
2017-10-08T10:55:30.672Z,10044.00
2017-10-08T10:56:30.586Z,8068.00
2017-10-08T10:57:30.760Z,6344.00
2017-10-08T10:58:30.659Z,6660.00
2017-10-08T10:59:30.645Z,7708.00
2017-10-08T11:00:30.633Z,6904.00
2017-10-08T11:01:30.563Z,7576.00
2017-10-08T11:02:30.639Z,10152.00
2017-10-08T11:03:30.627Z,7772.00
2017-10-08T11:04:30.600Z,8160.00
2017-10-08T11:05:30.580Z,7124.00
2017-10-08T11:06:30.530Z,7744.00
2017-10-08T11:07:30.578Z,10916.00
2017-10-08T11:08:30.520Z,10584.00
2017-10-08T11:09:30.610Z,10272.00
2017-10-08T11:10:30.633Z,9736.00
2017-10-08T11:11:30.668Z,10088.00
2017-10-08T11:12:30.604Z,12976.00
2017-10-08T11:13:30.757Z,18752.00
2017-10-08T11:14:30.627Z,24512.00
2017-10-08T11:15:31.503Z,27712.00
2017-10-08T11:16:30.604Z,26720.00
2017-10-08T11:17:30.710Z,23200.00
2017-10-08T11:18:30.602Z,24352.00
2017-10-08T11:19:30.576Z,22624.00
2017-10-08T11:20:30.523Z,18560.00
2017-10-08T11:21:31.233Z,15856.00
2017-10-08T11:22:30.545Z,14876.00
2017-10-08T11:23:30.608Z,13924.00
2017-10-08T11:24:30.613Z,10104.00
2017-10-08T11:25:30.515Z,11852.00
2017-10-08T11:26:31.238Z,13952.00
2017-10-08T11:27:30.536Z,17768.00
2017-10-08T11:28:30.570Z,20800.00
2017-10-08T11:29:30.739Z,16644.00
2017-10-08T11:30:30.598Z,14300.00
2017-10-08T11:31:30.691Z,12196.00
2017-10-08T11:32:30.625Z,12372.00
2017-10-08T11:33:30.575Z,13408.00
2017-10-08T11:34:30.657Z,14636.00
2017-10-08T11:35:30.549Z,13704.00
2017-10-08T11:36:30.538Z,10792.00
2017-10-08T11:37:30.503Z,10440.00
2017-10-08T11:38:30.500Z,23136.00
2017-10-08T11:39:30.549Z,19200.00
2017-10-08T11:40:30.512Z,15692.00
2017-10-08T11:41:30.526Z,12564.00
2017-10-08T11:42:30.526Z,25920.00
2017-10-08T11:43:30.563Z,37568.00
2017-10-08T11:44:30.547Z,37152.00
2017-10-08T11:45:30.552Z,23360.00
2017-10-08T11:46:30.819Z,29120.00
2017-10-08T11:47:30.619Z,27008.00
2017-10-08T11:48:30.581Z,29792.00
2017-10-08T11:49:30.526Z,13292.00
2017-10-08T11:50:30.654Z,9148.00
2017-10-08T11:51:30.630Z,9764.00
2017-10-08T11:52:30.530Z,12316.00
2017-10-08T11:53:30.493Z,15388.00
2017-10-08T11:54:30.515Z,25856.00
2017-10-08T11:55:30.565Z,24352.00
2017-10-08T11:56:31.507Z,24256.00
2017-10-08T11:57:30.649Z,25664.00
2017-10-08T11:58:30.632Z,27040.00
2017-10-08T11:59:30.657Z,29632.00
2017-10-08T12:00:30.563Z,29216.00
2017-10-08T12:01:30.524Z,29792.00
2017-10-08T12:02:30.533Z,31360.00
2017-10-08T12:03:30.570Z,33984.00
2017-10-08T12:04:30.771Z,32672.00
2017-10-08T12:05:30.684Z,26784.00
2017-10-08T12:06:30.550Z,21312.00
2017-10-08T12:07:30.538Z,19712.00
2017-10-08T12:08:30.531Z,30304.00
2017-10-08T12:09:30.495Z,29056.00
2017-10-08T12:10:30.586Z,30816.00
2017-10-08T12:11:30.570Z,33728.00
2017-10-08T12:12:30.610Z,39648.00
2017-10-08T12:13:30.668Z,29824.00
2017-10-08T12:14:31.422Z,38624.00
2017-10-08T12:15:30.719Z,34016.00
2017-10-08T12:16:30.613Z,34528.00
2017-10-08T12:17:30.563Z,37120.00
2017-10-08T12:18:31.339Z,28672.00
2017-10-08T12:19:30.622Z,17568.00
2017-10-08T12:20:31.088Z,13996.00
2017-10-08T12:21:30.507Z,14976.00
2017-10-08T12:22:30.524Z,17536.00
2017-10-08T12:23:30.476Z,27392.00
2017-10-08T12:24:30.552Z,20384.00
2017-10-08T12:25:30.480Z,14960.00
2017-10-08T12:26:30.597Z,18496.00
2017-10-08T12:27:30.494Z,19584.00
2017-10-08T12:28:30.509Z,18176.00
2017-10-08T12:29:31.569Z,15232.00
2017-10-08T12:30:30.529Z,17072.00